Pemaquid Point Lighthouse, ME

43° 50' 13"N, 69° 30' 22"W, Elevation 40 ft.
Eastern Time

Hourly observations for the last 72 hours

Date Time Temperature (°F) Humi-
dity

(%)
Wind
(mph)
Pressure Rain (in) Sun
(W/m2)
UV ET
(in)
Air Dew 6 Hour 1 Hr 3 Hr 6 Hr Day
Alt
(in)
Sea
Level

(mb)
Max Min
22 02:00 37.2 25.0 37.8 36.6 61 W 10 G 17 30.00 1015.9 0.00 0 0.0 0.002
22 01:00 37.3 25.9 63 W 14 G 19 29.98 1015.3 0.00 0 0.0 0.000
22 00:00 36.8 26.1 65 W 12 G 19 29.96 1014.7 0.00 0 0.0 0.099
21 23:00 37.1 26.4 65 W 10 G 19 29.95 1014.3 0.00 0 0.0 0.097
21 22:00 37.3 25.9 63 W 10 G 15 29.94 1013.9 0.00 0 0.0 0.095
21 21:00 37.3 25.1 61 W 12 G 21 29.91 1012.9 0.00 0 0.0 0.092
21 20:00 37.8 24.3 45.0 37.8 58 WNW 14 G 21 29.89 1012.2 0.00 0 0.0 0.089
21 19:00 38.8 24.9 57 WNW 14 G 30 29.86 1011.1 0.00 0 0.0 0.085
21 18:00 39.9 25.9 57 WNW 16 G 24 29.82 1009.7 0.00 0 0.0 0.081
21 17:00 41.8 27.7 57 NW 13 G 28 29.78 1008.4 0.00 74 0.0 0.074
21 16:00 42.9 27.8 55 WNW 18 G 33 29.74 1007.0 0.00 346 0.5 0.063
21 15:00 44.5 29.3 55 WNW 23 G 35 29.71 1006.1 0.00 494 1.1 0.049
21 14:00 44.8 30.1 45.1 41.4 56 NW 15 G 31 29.71 1006.0 0.00 541 1.8 0.035
21 13:00 44.7 30.4 57 WNW 18 G 28 29.70 1005.8 0.00 645 2.2 0.024
21 12:00 43.2 31.5 63 WNW 10 G 24 29.71 1006.2 0.00 271 1.3 0.018
21 11:00 42.5 31.6 65 NW 10 G 21 29.72 1006.4 0.00 155 0.8 0.014
21 10:00 41.7 31.6 67 NNW 6 G 15 29.72 1006.4 0.00 100 0.5 0.012
21 09:00 41.7 31.9 68 N 7 G 16 29.69 1005.6 0.00 44 0.0 0.010
21 08:00 41.7 33.0 47.5 41.2 71 NNW 6 G 16 29.67 1004.7 0.00 33 0.0 0.009
21 07:00 41.4 34.7 77 N 5 G 9 29.63 1003.3 0.00 0 0.0 0.008
21 06:00 42.4 35.4 76 N 4 G 9 29.60 1002.6 0.00 0 0.0 0.007
21 05:00 43.1 35.7 75 N 4 G 7 29.58 1001.6 0.00 0 0.0 0.006
21 04:00 43.7 36.6 76 NNW 5 G 10 29.55 1000.8 0.00 0 0.0 0.005
21 03:00 46.3 37.4 71 N 7 G 14 29.55 1000.6 0.00 0 0.0 0.003
21 02:00 47.4 37.7 54.2 46.7 69 NNW 9 G 14 29.54 1000.4 0.00 0 0.0 0.001
21 01:00 47.0 39.5 75 NW 7 G 11 29.54 1000.3 0.00 0 0.0 0.000
21 00:00 48.3 40.1 73 NW 6 G 10 29.53 1000.2 0.00 0 0.0 0.108
20 23:00 49.9 41.2 72 WNW 5 G 7 29.53 1000.0 0.00 0 0.0 0.106
20 22:00 53.4 43.1 68 NNW 3 G 8 29.51 999.3 0.00 0 0.0 0.104
20 21:00 53.3 47.6 81 W 7 G 11 29.50 999.1 0.00 0 0.0 0.103
20 20:00 53.9 50.1 58.2 53.7 87 WSW 6 G 12 29.50 999.1 0.00 0 0.0 0.102
20 19:00 53.7 50.2 88 WSW 4 G 11 29.49 998.8 0.00 0 0.0 0.101
20 18:00 54.4 50.9 88 SW 12 G 16 29.49 998.6 0.00 0 0.0 0.099
20 17:00 56.2 51.4 84 SW 14 G 18 29.48 998.3 0.00 35 0.0 0.093
20 16:00 57.5 52.4 83 SW 14 G 18 29.49 998.5 0.00 320 0.7 0.084
20 15:00 58.1 53.0 83 SSW 12 G 17 29.49 998.8 0.00 476 1.3 0.072
20 14:00 57.4 52.6 57.5 55.4 84 SW 13 G 19 29.51 999.2 0.00 533 2.2 0.062
20 13:00 57.3 52.2 83 SW 16 G 26 29.52 999.6 0.00 659 2.7 0.049
20 12:00 57.1 52.3 84 SW 21 G 27 29.54 1000.5 0.00 517 1.9 0.037
20 11:00 56.9 51.8 83 SW 19 G 28 29.55 1000.5 0.00 800 1.8 0.029
20 10:00 56.4 51.3 83 SW 17 G 28 29.57 1001.3 0.00 206 1.3 0.024
20 09:00 55.6 51.2 85 SSW 23 G 31 29.58 1001.6 0.00 33 0.0 0.021
20 08:00 55.5 50.7 55.5 53.6 84 SSW 23 G 31 29.58 1001.8 0.00 7 0.0 0.018
20 07:00 55.0 50.3 84 SSW 27 G 34 29.59 1002.2 0.00 0 0.0 0.015
20 06:00 54.6 50.2 85 SSW 22 G 31 29.63 1003.4 0.00 0 0.0 0.013
20 05:00 54.3 49.9 85 SW 20 G 32 29.66 1004.3 0.00 0 0.0 0.011
20 04:00 54.0 49.6 85 SW 19 G 28 29.68 1005.0 0.00 0 0.0 0.009
20 03:00 53.9 47.9 80 SW 28 G 34 29.69 1005.4 0.00 0 0.0 0.006
20 02:00 53.9 47.5 54.6 53.4 79 SSW 25 G 37 29.71 1006.1 0.00 0 0.0 0.003
20 01:00 53.6 47.3 79 SW 17 G 30 29.76 1007.9 0.00 0 0.0 0.000
20 00:00 53.6 47.3 79 SW 15 G 25 29.77 1008.2 0.00 0 0.0 0.109
19 23:00 54.2 48.5 81 SW 18 G 26 29.81 1009.5 0.00 0 0.0 0.107
19 22:00 54.4 48.7 81 SW 15 G 25 29.83 1010.2 0.00 0 0.0 0.105
19 21:00 54.3 49.6 84 SSW 20 G 24 29.84 1010.5 0.00 0 0.0 0.103
19 20:00 53.7 49.0 53.7 50.7 84 SSW 16 G 18 29.89 1012.1 0.00 0 0.0 0.101
19 19:00 53.2 47.2 80 SSW 18 G 25 29.91 1012.9 0.00 0 0.0 0.098
19 18:00 52.6 45.9 78 SSW 18 G 22 29.92 1013.3 0.00 0 0.0 0.095
19 17:00 52.0 45.0 77 SSW 18 G 24 29.94 1013.8 0.00 40 0.0 0.089
19 16:00 51.4 43.7 75 SSW 17 G 26 29.95 1014.2 0.00 322 0.7 0.079
19 15:00 51.3 44.0 76 SW 14 G 23 29.98 1015.2 0.00 487 1.3 0.067
19 14:00 50.7 43.1 50.7 41.8 75 SSW 16 G 22 30.00 1015.8 0.00 548 2.2 0.055
19 13:00 49.8 42.2 75 SW 15 G 20 30.04 1017.3 0.00 640 2.7 0.043
19 12:00 48.4 40.5 74 SW 6 G 17 30.07 1018.3 0.00 547 2.7 0.031
19 11:00 47.3 38.7 72 WSW 7 G 13 30.09 1019.0 0.00 587 2.2 0.025
19 10:00 45.2 36.7 72 WSW 9 G 16 30.12 1019.9 0.00 84 1.1 0.022
19 09:00 43.5 34.7 71 W 10 G 18 30.14 1020.6 0.00 42 0.0 0.019
19 08:00 41.8 32.4 41.8 39.5 69 W 11 G 16 30.15 1020.9 0.00 26 0.0 0.017
19 07:00 41.3 30.0 64 W 11 G 16 30.15 1021.0 0.00 0 0.0 0.015
19 06:00 40.9 29.7 64 W 10 G 17 30.14 1020.8 0.00 0 0.0 0.013
19 05:00 40.0 26.4 58 W 10 G 14 30.16 1021.4 0.00 0 0.0 0.010
19 04:00 40.3 28.3 62 WSW 9 G 16 30.17 1021.6 0.00 0 0.0 0.007
19 03:00 40.4 26.4 57 W 10 G 18 30.18 1021.9 0.00 0 0.0 0.005

Data generated by WxSolution Version 1.9.1.5, Build 2018.05.20.